sensor_id;sensor_type;location;lat;lon;timestamp;temperature;humidity
31387;DHT22;69978;50.096;8.448;2023-11-19T00:02:08;7.70;99.90
31387;DHT22;69978;50.096;8.448;2023-11-19T00:04:37;7.70;99.90
31387;DHT22;69978;50.096;8.448;2023-11-19T00:07:05;7.70;99.90
31387;DHT22;69978;50.096;8.448;2023-11-19T00:09:32;7.70;99.90
31387;DHT22;69978;50.096;8.448;2023-11-19T00:11:58;7.80;99.90
31387;DHT22;69978;50.096;8.448;2023-11-19T00:14:25;7.70;99.90
31387;DHT22;69978;50.096;8.448;2023-11-19T00:16:51;7.80;99.90
31387;DHT22;69978;50.096;8.448;2023-11-19T00:19:19;7.80;99.90
31387;DHT22;69978;50.096;8.448;2023-11-19T00:21:44;7.80;99.90
31387;DHT22;69978;50.096;8.448;2023-11-19T00:24:11;7.80;99.90
31387;DHT22;69978;50.096;8.448;2023-11-19T00:26:38;7.80;99.90
31387;DHT22;69978;50.096;8.448;2023-11-19T00:29:04;7.80;99.90
31387;DHT22;69978;50.096;8.448;2023-11-19T00:31:29;7.80;99.90
31387;DHT22;69978;50.096;8.448;2023-11-19T00:33:55;7.80;99.90
31387;DHT22;69978;50.096;8.448;2023-11-19T00:36:20;7.80;99.90
31387;DHT22;69978;50.096;8.448;2023-11-19T00:38:46;7.80;99.90
31387;DHT22;69978;50.096;8.448;2023-11-19T00:41:12;7.90;99.90
31387;DHT22;69978;50.096;8.448;2023-11-19T00:43:37;7.90;99.90
31387;DHT22;69978;50.096;8.448;2023-11-19T00:46:06;7.90;99.90
31387;DHT22;69978;50.096;8.448;2023-11-19T00:48:32;7.90;99.90
31387;DHT22;69978;50.096;8.448;2023-11-19T00:50:57;7.90;99.90
31387;DHT22;69978;50.096;8.448;2023-11-19T00:53:23;7.90;99.90
31387;DHT22;69978;50.096;8.448;2023-11-19T00:55:48;8.00;99.90
31387;DHT22;69978;50.096;8.448;2023-11-19T00:58:14;7.90;99.90
31387;DHT22;69978;50.096;8.448;2023-11-19T01:00:40;7.90;99.90
31387;DHT22;69978;50.096;8.448;2023-11-19T01:03:08;7.90;99.90
31387;DHT22;69978;50.096;8.448;2023-11-19T01:05:33;8.00;99.90
31387;DHT22;69978;50.096;8.448;2023-11-19T01:07:59;8.00;99.90
31387;DHT22;69978;50.096;8.448;2023-11-19T01:10:25;8.00;99.90
31387;DHT22;69978;50.096;8.448;2023-11-19T01:12:51;8.00;99.90
31387;DHT22;69978;50.096;8.448;2023-11-19T01:15:17;8.00;99.90
31387;DHT22;69978;50.096;8.448;2023-11-19T01:17:44;8.10;99.90
31387;DHT22;69978;50.096;8.448;2023-11-19T01:20:11;8.10;99.90
31387;DHT22;69978;50.096;8.448;2023-11-19T01:22:38;8.10;99.90
31387;DHT22;69978;50.096;8.448;2023-11-19T01:25:05;8.00;99.90
31387;DHT22;69978;50.096;8.448;2023-11-19T01:27:32;8.00;99.90
31387;DHT22;69978;50.096;8.448;2023-11-19T01:30:00;8.00;99.90
31387;DHT22;69978;50.096;8.448;2023-11-19T01:32:29;8.00;99.90
31387;DHT22;69978;50.096;8.448;2023-11-19T01:34:54;8.10;99.90
31387;DHT22;69978;50.096;8.448;2023-11-19T01:37:20;8.10;99.90
31387;DHT22;69978;50.096;8.448;2023-11-19T01:39:45;8.10;99.90
31387;DHT22;69978;50.096;8.448;2023-11-19T01:42:11;8.10;99.90
31387;DHT22;69978;50.096;8.448;2023-11-19T01:44:42;8.10;99.90
31387;DHT22;69978;50.096;8.448;2023-11-19T01:47:08;8.10;99.90
31387;DHT22;69978;50.096;8.448;2023-11-19T01:49:34;8.20;99.90
31387;DHT22;69978;50.096;8.448;2023-11-19T01:52:00;8.20;99.90
31387;DHT22;69978;50.096;8.448;2023-11-19T01:54:26;8.20;99.90
31387;DHT22;69978;50.096;8.448;2023-11-19T01:56:55;8.20;99.90
31387;DHT22;69978;50.096;8.448;2023-11-19T01:59:22;8.20;99.90
31387;DHT22;69978;50.096;8.448;2023-11-19T02:01:53;8.20;99.90
31387;DHT22;69978;50.096;8.448;2023-11-19T02:04:19;8.20;99.90
31387;DHT22;69978;50.096;8.448;2023-11-19T02:06:47;8.20;99.90
31387;DHT22;69978;50.096;8.448;2023-11-19T02:09:13;8.20;99.90
31387;DHT22;69978;50.096;8.448;2023-11-19T02:11:42;8.20;99.90
31387;DHT22;69978;50.096;8.448;2023-11-19T02:14:07;8.30;99.90
31387;DHT22;69978;50.096;8.448;2023-11-19T02:16:33;8.20;99.90
31387;DHT22;69978;50.096;8.448;2023-11-19T02:18:59;8.20;99.90
31387;DHT22;69978;50.096;8.448;2023-11-19T02:21:25;8.20;99.90
31387;DHT22;69978;50.096;8.448;2023-11-19T02:23:50;8.20;99.90
31387;DHT22;69978;50.096;8.448;2023-11-19T02:28:48;8.30;99.90
31387;DHT22;69978;50.096;8.448;2023-11-19T02:31:13;8.30;99.90
31387;DHT22;69978;50.096;8.448;2023-11-19T02:33:39;8.30;99.90
31387;DHT22;69978;50.096;8.448;2023-11-19T02:36:06;8.40;99.90
31387;DHT22;69978;50.096;8.448;2023-11-19T02:38:35;8.40;99.90
31387;DHT22;69978;50.096;8.448;2023-11-19T02:41:04;8.40;99.90
31387;DHT22;69978;50.096;8.448;2023-11-19T02:43:34;8.40;99.90
31387;DHT22;69978;50.096;8.448;2023-11-19T02:46:03;8.40;99.90
31387;DHT22;69978;50.096;8.448;2023-11-19T02:48:33;8.40;99.90
31387;DHT22;69978;50.096;8.448;2023-11-19T02:51:01;8.40;99.90
31387;DHT22;69978;50.096;8.448;2023-11-19T02:53:31;8.40;99.90
31387;DHT22;69978;50.096;8.448;2023-11-19T02:55:57;8.40;99.90
31387;DHT22;69978;50.096;8.448;2023-11-19T02:58:45;8.40;99.90
31387;DHT22;69978;50.096;8.448;2023-11-19T03:01:13;8.40;99.90
31387;DHT22;69978;50.096;8.448;2023-11-19T03:03:48;8.40;99.90
31387;DHT22;69978;50.096;8.448;2023-11-19T03:06:19;8.40;99.90
31387;DHT22;69978;50.096;8.448;2023-11-19T03:08:45;8.50;99.90
31387;DHT22;69978;50.096;8.448;2023-11-19T03:11:10;8.50;99.90
31387;DHT22;69978;50.096;8.448;2023-11-19T03:13:36;8.50;99.90
31387;DHT22;69978;50.096;8.448;2023-11-19T03:16:01;8.40;99.90
31387;DHT22;69978;50.096;8.448;2023-11-19T03:18:27;8.50;99.90
31387;DHT22;69978;50.096;8.448;2023-11-19T03:20:53;8.50;99.90
31387;DHT22;69978;50.096;8.448;2023-11-19T03:23:19;8.40;99.90
31387;DHT22;69978;50.096;8.448;2023-11-19T03:25:45;8.40;99.90
31387;DHT22;69978;50.096;8.448;2023-11-19T03:28:11;8.50;99.90
31387;DHT22;69978;50.096;8.448;2023-11-19T03:30:36;8.50;99.90
31387;DHT22;69978;50.096;8.448;2023-11-19T03:33:02;8.50;99.90
31387;DHT22;69978;50.096;8.448;2023-11-19T03:35:28;8.50;99.90
31387;DHT22;69978;50.096;8.448;2023-11-19T03:37:54;8.50;99.90
31387;DHT22;69978;50.096;8.448;2023-11-19T03:40:20;8.50;99.90
31387;DHT22;69978;50.096;8.448;2023-11-19T03:42:46;8.50;99.90
31387;DHT22;69978;50.096;8.448;2023-11-19T03:45:12;8.50;99.90
31387;DHT22;69978;50.096;8.448;2023-11-19T03:47:37;8.60;99.90
31387;DHT22;69978;50.096;8.448;2023-11-19T03:50:04;8.50;99.90
31387;DHT22;69978;50.096;8.448;2023-11-19T03:52:30;8.60;99.90
31387;DHT22;69978;50.096;8.448;2023-11-19T03:54:56;8.60;99.90
31387;DHT22;69978;50.096;8.448;2023-11-19T03:57:23;8.60;99.90
31387;DHT22;69978;50.096;8.448;2023-11-19T03:59:48;8.60;99.90
31387;DHT22;69978;50.096;8.448;2023-11-19T04:02:14;8.60;99.90
31387;DHT22;69978;50.096;8.448;2023-11-19T04:04:40;8.60;99.90
31387;DHT22;69978;50.096;8.448;2023-11-19T04:07:06;8.70;99.90
31387;DHT22;69978;50.096;8.448;2023-11-19T04:09:32;8.70;99.90
31387;DHT22;69978;50.096;8.448;2023-11-19T04:12:03;8.70;99.90
31387;DHT22;69978;50.096;8.448;2023-11-19T04:14:29;8.70;99.90
31387;DHT22;69978;50.096;8.448;2023-11-19T04:16:54;8.70;99.90
31387;DHT22;69978;50.096;8.448;2023-11-19T04:19:20;8.70;99.90
31387;DHT22;69978;50.096;8.448;2023-11-19T04:21:46;8.70;99.90
31387;DHT22;69978;50.096;8.448;2023-11-19T04:24:12;8.80;99.90
31387;DHT22;69978;50.096;8.448;2023-11-19T04:26:41;8.80;99.90
31387;DHT22;69978;50.096;8.448;2023-11-19T04:29:14;8.80;99.90
31387;DHT22;69978;50.096;8.448;2023-11-19T04:31:40;8.80;99.90
31387;DHT22;69978;50.096;8.448;2023-11-19T04:34:06;8.80;99.90
31387;DHT22;69978;50.096;8.448;2023-11-19T04:36:33;8.80;99.90
31387;DHT22;69978;50.096;8.448;2023-11-19T04:38:59;8.80;99.90
31387;DHT22;69978;50.096;8.448;2023-11-19T04:41:25;8.80;99.90
31387;DHT22;69978;50.096;8.448;2023-11-19T04:43:53;8.90;99.90
31387;DHT22;69978;50.096;8.448;2023-11-19T04:46:19;8.80;99.90
31387;DHT22;69978;50.096;8.448;2023-11-19T04:48:46;8.90;99.90
31387;DHT22;69978;50.096;8.448;2023-11-19T04:51:11;8.90;99.90
31387;DHT22;69978;50.096;8.448;2023-11-19T04:53:37;8.90;99.90
31387;DHT22;69978;50.096;8.448;2023-11-19T04:56:11;8.90;99.90
31387;DHT22;69978;50.096;8.448;2023-11-19T04:58:37;8.90;99.90
31387;DHT22;69978;50.096;8.448;2023-11-19T05:01:03;8.90;99.90
31387;DHT22;69978;50.096;8.448;2023-11-19T05:03:32;9.00;99.90
31387;DHT22;69978;50.096;8.448;2023-11-19T05:05:58;9.00;99.90
31387;DHT22;69978;50.096;8.448;2023-11-19T05:08:24;9.00;99.90
31387;DHT22;69978;50.096;8.448;2023-11-19T05:10:50;9.00;99.90
31387;DHT22;69978;50.096;8.448;2023-11-19T05:13:15;9.00;99.90
31387;DHT22;69978;50.096;8.448;2023-11-19T05:15:42;9.00;99.90
31387;DHT22;69978;50.096;8.448;2023-11-19T05:18:07;9.00;99.90
31387;DHT22;69978;50.096;8.448;2023-11-19T05:20:34;9.00;99.90
31387;DHT22;69978;50.096;8.448;2023-11-19T05:22:59;9.10;99.90
31387;DHT22;69978;50.096;8.448;2023-11-19T05:25:26;9.10;99.90
31387;DHT22;69978;50.096;8.448;2023-11-19T05:27:52;9.10;99.90
31387;DHT22;69978;50.096;8.448;2023-11-19T05:30:18;9.10;99.90
31387;DHT22;69978;50.096;8.448;2023-11-19T05:32:43;9.10;99.90
31387;DHT22;69978;50.096;8.448;2023-11-19T05:35:09;9.10;99.90
31387;DHT22;69978;50.096;8.448;2023-11-19T05:37:35;9.10;99.90
31387;DHT22;69978;50.096;8.448;2023-11-19T05:40:01;9.20;99.90
31387;DHT22;69978;50.096;8.448;2023-11-19T05:42:28;9.20;99.90
31387;DHT22;69978;50.096;8.448;2023-11-19T05:44:54;9.20;99.90
31387;DHT22;69978;50.096;8.448;2023-11-19T05:47:20;9.20;99.90
31387;DHT22;69978;50.096;8.448;2023-11-19T05:49:45;9.20;99.90
31387;DHT22;69978;50.096;8.448;2023-11-19T05:52:11;9.20;99.90
31387;DHT22;69978;50.096;8.448;2023-11-19T05:54:37;9.20;99.90
31387;DHT22;69978;50.096;8.448;2023-11-19T05:57:06;9.20;99.90
31387;DHT22;69978;50.096;8.448;2023-11-19T05:59:35;9.20;99.90
31387;DHT22;69978;50.096;8.448;2023-11-19T06:02:01;9.30;99.90
31387;DHT22;69978;50.096;8.448;2023-11-19T06:04:27;9.20;99.90
31387;DHT22;69978;50.096;8.448;2023-11-19T06:06:53;9.20;99.90
31387;DHT22;69978;50.096;8.448;2023-11-19T06:09:21;9.30;99.90
31387;DHT22;69978;50.096;8.448;2023-11-19T06:11:49;9.30;99.90
31387;DHT22;69978;50.096;8.448;2023-11-19T06:14:14;9.30;99.90
31387;DHT22;69978;50.096;8.448;2023-11-19T06:16:40;9.20;99.90
31387;DHT22;69978;50.096;8.448;2023-11-19T06:19:05;9.30;99.90
31387;DHT22;69978;50.096;8.448;2023-11-19T06:21:31;9.30;99.90
31387;DHT22;69978;50.096;8.448;2023-11-19T06:23:57;9.40;99.90
31387;DHT22;69978;50.096;8.448;2023-11-19T06:26:24;9.30;99.90
31387;DHT22;69978;50.096;8.448;2023-11-19T06:28:50;9.30;99.90
31387;DHT22;69978;50.096;8.448;2023-11-19T06:31:16;9.40;99.90
31387;DHT22;69978;50.096;8.448;2023-11-19T06:33:42;9.40;99.90
31387;DHT22;69978;50.096;8.448;2023-11-19T06:36:08;9.40;99.90
31387;DHT22;69978;50.096;8.448;2023-11-19T06:38:34;9.40;99.90
31387;DHT22;69978;50.096;8.448;2023-11-19T06:41:00;9.40;99.90
31387;DHT22;69978;50.096;8.448;2023-11-19T06:43:25;9.40;99.90
31387;DHT22;69978;50.096;8.448;2023-11-19T06:45:51;9.40;99.90
31387;DHT22;69978;50.096;8.448;2023-11-19T06:48:16;9.40;99.90
31387;DHT22;69978;50.096;8.448;2023-11-19T06:50:42;9.50;99.90
31387;DHT22;69978;50.096;8.448;2023-11-19T06:53:08;9.50;99.90
31387;DHT22;69978;50.096;8.448;2023-11-19T06:55:35;9.50;99.90
31387;DHT22;69978;50.096;8.448;2023-11-19T06:58:01;9.60;99.90
31387;DHT22;69978;50.096;8.448;2023-11-19T07:00:28;9.60;99.90
31387;DHT22;69978;50.096;8.448;2023-11-19T07:02:54;9.60;99.90
31387;DHT22;69978;50.096;8.448;2023-11-19T07:05:20;9.60;99.90
31387;DHT22;69978;50.096;8.448;2023-11-19T07:07:46;9.60;99.90
31387;DHT22;69978;50.096;8.448;2023-11-19T07:10:12;9.60;99.90
31387;DHT22;69978;50.096;8.448;2023-11-19T07:12:38;9.70;99.90
31387;DHT22;69978;50.096;8.448;2023-11-19T07:15:04;9.70;99.90
31387;DHT22;69978;50.096;8.448;2023-11-19T07:17:31;9.70;99.90
31387;DHT22;69978;50.096;8.448;2023-11-19T07:19:56;9.70;99.90
31387;DHT22;69978;50.096;8.448;2023-11-19T07:22:25;9.70;99.90
31387;DHT22;69978;50.096;8.448;2023-11-19T07:24:50;9.70;99.90
31387;DHT22;69978;50.096;8.448;2023-11-19T07:27:16;9.70;99.90
31387;DHT22;69978;50.096;8.448;2023-11-19T07:29:43;9.70;99.90
31387;DHT22;69978;50.096;8.448;2023-11-19T07:32:10;9.70;99.90
31387;DHT22;69978;50.096;8.448;2023-11-19T07:34:35;9.80;99.90
31387;DHT22;69978;50.096;8.448;2023-11-19T07:37:01;9.80;99.90
31387;DHT22;69978;50.096;8.448;2023-11-19T07:39:28;9.90;99.90
31387;DHT22;69978;50.096;8.448;2023-11-19T07:41:54;9.90;99.90
31387;DHT22;69978;50.096;8.448;2023-11-19T07:44:20;10.00;99.90
31387;DHT22;69978;50.096;8.448;2023-11-19T07:46:46;10.00;99.90
31387;DHT22;69978;50.096;8.448;2023-11-19T07:49:13;10.00;99.90
31387;DHT22;69978;50.096;8.448;2023-11-19T07:51:39;10.00;99.90
31387;DHT22;69978;50.096;8.448;2023-11-19T07:54:05;10.00;99.90
31387;DHT22;69978;50.096;8.448;2023-11-19T07:56:32;10.00;99.90
31387;DHT22;69978;50.096;8.448;2023-11-19T07:58:59;10.00;99.90
31387;DHT22;69978;50.096;8.448;2023-11-19T08:01:25;10.10;99.90
31387;DHT22;69978;50.096;8.448;2023-11-19T08:03:50;10.20;99.90
31387;DHT22;69978;50.096;8.448;2023-11-19T08:06:16;10.20;99.90
31387;DHT22;69978;50.096;8.448;2023-11-19T08:08:41;10.30;99.90
31387;DHT22;69978;50.096;8.448;2023-11-19T08:11:08;10.40;99.90
31387;DHT22;69978;50.096;8.448;2023-11-19T08:13:33;10.50;99.90
31387;DHT22;69978;50.096;8.448;2023-11-19T08:15:59;10.50;99.90
31387;DHT22;69978;50.096;8.448;2023-11-19T08:18:24;10.50;99.90
31387;DHT22;69978;50.096;8.448;2023-11-19T08:20:50;10.50;99.90
31387;DHT22;69978;50.096;8.448;2023-11-19T08:23:19;10.70;99.90
31387;DHT22;69978;50.096;8.448;2023-11-19T08:25:45;10.80;99.90
31387;DHT22;69978;50.096;8.448;2023-11-19T08:28:11;10.90;99.90
31387;DHT22;69978;50.096;8.448;2023-11-19T08:30:36;10.80;99.90
31387;DHT22;69978;50.096;8.448;2023-11-19T08:33:02;10.90;99.90
31387;DHT22;69978;50.096;8.448;2023-11-19T08:35:31;10.80;99.90
31387;DHT22;69978;50.096;8.448;2023-11-19T08:37:57;10.90;99.90
31387;DHT22;69978;50.096;8.448;2023-11-19T08:40:24;11.00;99.90
31387;DHT22;69978;50.096;8.448;2023-11-19T08:42:51;11.00;99.90
31387;DHT22;69978;50.096;8.448;2023-11-19T08:45:17;11.10;99.90
31387;DHT22;69978;50.096;8.448;2023-11-19T08:47:43;11.10;99.90
31387;DHT22;69978;50.096;8.448;2023-11-19T08:50:11;11.20;99.90
31387;DHT22;69978;50.096;8.448;2023-11-19T08:52:37;11.30;99.90
31387;DHT22;69978;50.096;8.448;2023-11-19T08:55:03;11.30;99.90
31387;DHT22;69978;50.096;8.448;2023-11-19T08:57:31;11.40;99.90
31387;DHT22;69978;50.096;8.448;2023-11-19T08:59:56;11.40;99.90
31387;DHT22;69978;50.096;8.448;2023-11-19T09:02:22;11.60;99.90
31387;DHT22;69978;50.096;8.448;2023-11-19T09:04:47;11.70;99.90
31387;DHT22;69978;50.096;8.448;2023-11-19T09:07:13;11.90;99.90
31387;DHT22;69978;50.096;8.448;2023-11-19T09:09:39;12.00;99.90
31387;DHT22;69978;50.096;8.448;2023-11-19T09:12:04;12.10;99.90
31387;DHT22;69978;50.096;8.448;2023-11-19T09:14:30;12.30;99.90
31387;DHT22;69978;50.096;8.448;2023-11-19T09:16:56;12.60;99.90
31387;DHT22;69978;50.096;8.448;2023-11-19T09:19:22;12.70;99.90
31387;DHT22;69978;50.096;8.448;2023-11-19T09:21:48;13.10;99.90
31387;DHT22;69978;50.096;8.448;2023-11-19T09:24:14;13.20;99.90
31387;DHT22;69978;50.096;8.448;2023-11-19T09:26:40;13.30;99.90
31387;DHT22;69978;50.096;8.448;2023-11-19T09:29:07;13.50;99.90
31387;DHT22;69978;50.096;8.448;2023-11-19T09:31:33;13.60;99.90
31387;DHT22;69978;50.096;8.448;2023-11-19T09:33:58;13.70;99.90
31387;DHT22;69978;50.096;8.448;2023-11-19T09:36:24;13.90;99.90
31387;DHT22;69978;50.096;8.448;2023-11-19T09:38:49;13.90;99.90
31387;DHT22;69978;50.096;8.448;2023-11-19T09:41:15;14.10;99.90
31387;DHT22;69978;50.096;8.448;2023-11-19T09:43:42;14.30;99.90
31387;DHT22;69978;50.096;8.448;2023-11-19T09:46:10;14.40;99.90
31387;DHT22;69978;50.096;8.448;2023-11-19T09:48:39;14.60;99.90
31387;DHT22;69978;50.096;8.448;2023-11-19T09:51:09;14.70;99.90
31387;DHT22;69978;50.096;8.448;2023-11-19T09:53:35;14.90;99.90
31387;DHT22;69978;50.096;8.448;2023-11-19T09:56:05;15.00;99.90
31387;DHT22;69978;50.096;8.448;2023-11-19T09:58:34;15.10;99.90
31387;DHT22;69978;50.096;8.448;2023-11-19T10:01:00;15.20;99.90
31387;DHT22;69978;50.096;8.448;2023-11-19T10:03:31;15.30;99.90
31387;DHT22;69978;50.096;8.448;2023-11-19T10:05:58;15.40;99.90
31387;DHT22;69978;50.096;8.448;2023-11-19T10:08:24;15.40;99.90
31387;DHT22;69978;50.096;8.448;2023-11-19T10:10:49;15.40;99.90
31387;DHT22;69978;50.096;8.448;2023-11-19T10:13:15;15.60;99.90
31387;DHT22;69978;50.096;8.448;2023-11-19T10:15:41;15.60;99.90
31387;DHT22;69978;50.096;8.448;2023-11-19T10:18:08;15.70;99.90
31387;DHT22;69978;50.096;8.448;2023-11-19T10:20:37;15.80;99.90
31387;DHT22;69978;50.096;8.448;2023-11-19T10:23:03;15.80;99.90
31387;DHT22;69978;50.096;8.448;2023-11-19T10:25:29;15.90;99.90
31387;DHT22;69978;50.096;8.448;2023-11-19T10:27:56;16.10;99.90
31387;DHT22;69978;50.096;8.448;2023-11-19T10:30:23;16.00;99.90
31387;DHT22;69978;50.096;8.448;2023-11-19T10:35:28;16.00;99.90
31387;DHT22;69978;50.096;8.448;2023-11-19T10:37:54;16.00;99.90
31387;DHT22;69978;50.096;8.448;2023-11-19T10:40:19;16.00;99.90
31387;DHT22;69978;50.096;8.448;2023-11-19T10:42:45;16.10;99.90
31387;DHT22;69978;50.096;8.448;2023-11-19T10:45:31;16.10;99.90
31387;DHT22;69978;50.096;8.448;2023-11-19T10:47:57;16.20;99.90
31387;DHT22;69978;50.096;8.448;2023-11-19T10:50:23;16.20;99.90
31387;DHT22;69978;50.096;8.448;2023-11-19T10:52:56;16.40;99.90
31387;DHT22;69978;50.096;8.448;2023-11-19T10:55:33;16.60;99.90
31387;DHT22;69978;50.096;8.448;2023-11-19T10:58:07;16.90;99.90
31387;DHT22;69978;50.096;8.448;2023-11-19T11:00:47;17.00;99.90
31387;DHT22;69978;50.096;8.448;2023-11-19T11:03:21;17.10;99.90
31387;DHT22;69978;50.096;8.448;2023-11-19T11:05:52;17.20;99.90
31387;DHT22;69978;50.096;8.448;2023-11-19T11:08:19;17.10;99.90
31387;DHT22;69978;50.096;8.448;2023-11-19T11:10:52;17.00;99.90
31387;DHT22;69978;50.096;8.448;2023-11-19T11:13:18;16.80;99.90
31387;DHT22;69978;50.096;8.448;2023-11-19T11:15:48;16.50;99.90
31387;DHT22;69978;50.096;8.448;2023-11-19T11:18:13;16.20;99.90
31387;DHT22;69978;50.096;8.448;2023-11-19T11:20:40;16.10;99.90
31387;DHT22;69978;50.096;8.448;2023-11-19T11:35:12;15.90;99.90
31387;DHT22;69978;50.096;8.448;2023-11-19T11:38:00;15.90;99.90
31387;DHT22;69978;50.096;8.448;2023-11-19T11:40:26;15.70;99.90
31387;DHT22;69978;50.096;8.448;2023-11-19T11:42:52;15.70;99.90
31387;DHT22;69978;50.096;8.448;2023-11-19T11:45:18;15.50;99.90
31387;DHT22;69978;50.096;8.448;2023-11-19T11:50:20;15.20;99.90
31387;DHT22;69978;50.096;8.448;2023-11-19T11:55:28;15.30;99.90
31387;DHT22;69978;50.096;8.448;2023-11-19T11:57:54;15.40;99.90
31387;DHT22;69978;50.096;8.448;2023-11-19T12:02:49;15.50;99.90
31387;DHT22;69978;50.096;8.448;2023-11-19T12:05:15;15.50;99.90
31387;DHT22;69978;50.096;8.448;2023-11-19T12:07:41;15.40;99.90
31387;DHT22;69978;50.096;8.448;2023-11-19T12:10:08;15.40;99.90
31387;DHT22;69978;50.096;8.448;2023-11-19T12:12:34;15.30;99.90
31387;DHT22;69978;50.096;8.448;2023-11-19T12:15:08;15.30;99.90
31387;DHT22;69978;50.096;8.448;2023-11-19T12:17:48;15.30;99.90
31387;DHT22;69978;50.096;8.448;2023-11-19T12:20:18;15.30;99.90
31387;DHT22;69978;50.096;8.448;2023-11-19T12:22:46;15.40;99.90
31387;DHT22;69978;50.096;8.448;2023-11-19T12:25:13;15.40;99.90
31387;DHT22;69978;50.096;8.448;2023-11-19T12:27:46;15.50;99.90
31387;DHT22;69978;50.096;8.448;2023-11-19T12:30:12;15.40;99.90
31387;DHT22;69978;50.096;8.448;2023-11-19T12:32:43;15.40;99.90
31387;DHT22;69978;50.096;8.448;2023-11-19T12:35:10;15.40;99.90
31387;DHT22;69978;50.096;8.448;2023-11-19T12:37:44;15.40;99.90
31387;DHT22;69978;50.096;8.448;2023-11-19T12:42:48;15.50;99.90
31387;DHT22;69978;50.096;8.448;2023-11-19T12:45:14;15.50;99.90
31387;DHT22;69978;50.096;8.448;2023-11-19T12:47:40;15.50;99.90
31387;DHT22;69978;50.096;8.448;2023-11-19T12:50:07;15.50;99.90
31387;DHT22;69978;50.096;8.448;2023-11-19T12:52:35;15.50;99.90
31387;DHT22;69978;50.096;8.448;2023-11-19T12:55:01;15.50;99.90
31387;DHT22;69978;50.096;8.448;2023-11-19T12:57:40;15.50;99.90
31387;DHT22;69978;50.096;8.448;2023-11-19T13:00:07;15.40;99.90
31387;DHT22;69978;50.096;8.448;2023-11-19T13:02:48;15.40;99.90
31387;DHT22;69978;50.096;8.448;2023-11-19T13:07:46;15.30;99.90
31387;DHT22;69978;50.096;8.448;2023-11-19T13:10:12;15.30;99.90
31387;DHT22;69978;50.096;8.448;2023-11-19T13:12:38;15.30;99.90
31387;DHT22;69978;50.096;8.448;2023-11-19T13:15:05;15.20;99.90
31387;DHT22;69978;50.096;8.448;2023-11-19T13:17:30;15.10;99.90
31387;DHT22;69978;50.096;8.448;2023-11-19T13:19:56;15.00;99.90
31387;DHT22;69978;50.096;8.448;2023-11-19T13:22:22;14.90;99.90
31387;DHT22;69978;50.096;8.448;2023-11-19T13:24:48;14.90;99.90
31387;DHT22;69978;50.096;8.448;2023-11-19T13:27:14;14.70;99.90
31387;DHT22;69978;50.096;8.448;2023-11-19T13:29:39;14.70;99.90
31387;DHT22;69978;50.096;8.448;2023-11-19T13:32:05;14.60;99.90
31387;DHT22;69978;50.096;8.448;2023-11-19T13:34:31;14.60;99.90
31387;DHT22;69978;50.096;8.448;2023-11-19T13:36:56;14.60;99.90
31387;DHT22;69978;50.096;8.448;2023-11-19T13:39:22;14.60;99.90
31387;DHT22;69978;50.096;8.448;2023-11-19T13:41:49;14.50;99.90
31387;DHT22;69978;50.096;8.448;2023-11-19T13:44:16;14.50;99.90
31387;DHT22;69978;50.096;8.448;2023-11-19T13:46:44;14.50;99.90
31387;DHT22;69978;50.096;8.448;2023-11-19T13:49:10;14.60;99.90
31387;DHT22;69978;50.096;8.448;2023-11-19T13:51:36;14.60;99.90
31387;DHT22;69978;50.096;8.448;2023-11-19T13:54:02;14.50;99.90
31387;DHT22;69978;50.096;8.448;2023-11-19T13:56:28;14.50;99.90
31387;DHT22;69978;50.096;8.448;2023-11-19T13:58:53;14.50;99.90
31387;DHT22;69978;50.096;8.448;2023-11-19T14:01:19;14.50;99.90
31387;DHT22;69978;50.096;8.448;2023-11-19T14:03:45;14.50;99.90
31387;DHT22;69978;50.096;8.448;2023-11-19T14:06:10;14.50;99.90
31387;DHT22;69978;50.096;8.448;2023-11-19T14:08:37;14.40;99.90
31387;DHT22;69978;50.096;8.448;2023-11-19T14:11:02;14.40;99.90
31387;DHT22;69978;50.096;8.448;2023-11-19T14:13:28;14.40;99.90
31387;DHT22;69978;50.096;8.448;2023-11-19T14:15:54;14.40;99.90
31387;DHT22;69978;50.096;8.448;2023-11-19T14:18:19;14.40;99.90
31387;DHT22;69978;50.096;8.448;2023-11-19T14:20:45;14.40;99.90
31387;DHT22;69978;50.096;8.448;2023-11-19T14:23:11;14.40;99.90
31387;DHT22;69978;50.096;8.448;2023-11-19T14:25:36;14.40;99.90
31387;DHT22;69978;50.096;8.448;2023-11-19T14:28:02;14.30;99.90
31387;DHT22;69978;50.096;8.448;2023-11-19T14:30:27;14.30;99.90
31387;DHT22;69978;50.096;8.448;2023-11-19T14:32:53;14.30;99.90
31387;DHT22;69978;50.096;8.448;2023-11-19T14:35:19;14.20;99.90
31387;DHT22;69978;50.096;8.448;2023-11-19T14:37:45;14.20;99.90
31387;DHT22;69978;50.096;8.448;2023-11-19T14:40:11;14.20;99.90
31387;DHT22;69978;50.096;8.448;2023-11-19T14:42:38;14.10;99.90
31387;DHT22;69978;50.096;8.448;2023-11-19T14:45:07;14.10;99.90
31387;DHT22;69978;50.096;8.448;2023-11-19T14:47:33;14.00;99.90
31387;DHT22;69978;50.096;8.448;2023-11-19T14:49:58;14.00;99.90
31387;DHT22;69978;50.096;8.448;2023-11-19T14:52:24;14.00;99.90
31387;DHT22;69978;50.096;8.448;2023-11-19T14:54:50;13.90;99.90
31387;DHT22;69978;50.096;8.448;2023-11-19T14:57:16;13.90;99.90
31387;DHT22;69978;50.096;8.448;2023-11-19T14:59:42;13.90;99.90
31387;DHT22;69978;50.096;8.448;2023-11-19T15:02:08;13.90;99.90
31387;DHT22;69978;50.096;8.448;2023-11-19T15:04:33;13.80;99.90
31387;DHT22;69978;50.096;8.448;2023-11-19T15:06:59;13.80;99.90
31387;DHT22;69978;50.096;8.448;2023-11-19T15:09:26;13.80;99.90
31387;DHT22;69978;50.096;8.448;2023-11-19T15:11:54;13.80;99.90
31387;DHT22;69978;50.096;8.448;2023-11-19T15:14:20;13.70;99.90
31387;DHT22;69978;50.096;8.448;2023-11-19T15:16:46;13.70;99.90
31387;DHT22;69978;50.096;8.448;2023-11-19T15:19:12;13.70;99.90
31387;DHT22;69978;50.096;8.448;2023-11-19T15:21:39;13.60;99.90
31387;DHT22;69978;50.096;8.448;2023-11-19T15:24:05;13.60;99.90
31387;DHT22;69978;50.096;8.448;2023-11-19T15:26:33;13.50;99.90
31387;DHT22;69978;50.096;8.448;2023-11-19T15:28:59;13.50;99.90
31387;DHT22;69978;50.096;8.448;2023-11-19T15:31:25;13.40;99.90
31387;DHT22;69978;50.096;8.448;2023-11-19T15:33:50;13.40;99.90
31387;DHT22;69978;50.096;8.448;2023-11-19T15:36:17;13.40;99.90
31387;DHT22;69978;50.096;8.448;2023-11-19T15:38:43;13.30;99.90
31387;DHT22;69978;50.096;8.448;2023-11-19T15:41:09;13.30;99.90
31387;DHT22;69978;50.096;8.448;2023-11-19T15:43:34;13.30;99.90
31387;DHT22;69978;50.096;8.448;2023-11-19T15:46:00;13.20;99.90
31387;DHT22;69978;50.096;8.448;2023-11-19T15:48:25;13.20;99.90
31387;DHT22;69978;50.096;8.448;2023-11-19T15:50:52;13.10;99.90
31387;DHT22;69978;50.096;8.448;2023-11-19T15:53:18;13.10;99.90
31387;DHT22;69978;50.096;8.448;2023-11-19T15:55:44;13.00;99.90
31387;DHT22;69978;50.096;8.448;2023-11-19T15:58:10;13.00;99.90
31387;DHT22;69978;50.096;8.448;2023-11-19T16:00:36;13.00;99.90
31387;DHT22;69978;50.096;8.448;2023-11-19T16:03:01;12.90;99.90
31387;DHT22;69978;50.096;8.448;2023-11-19T16:05:28;12.90;99.90